createdAt,value
2022-11-13T00:02:11.258Z,102567.16
2022-11-13T00:04:37.823Z,102562.25
2022-11-13T00:07:04.337Z,102558.69
2022-11-13T00:09:30.755Z,102558.47
2022-11-13T00:11:57.145Z,102557.38
2022-11-13T00:14:23.578Z,102560.91
2022-11-13T00:16:49.970Z,102559.31
2022-11-13T00:19:16.496Z,102558.47
2022-11-13T00:21:43.001Z,102565.25
2022-11-13T00:24:09.417Z,102558.75
2022-11-13T00:26:36.057Z,102559.56
2022-11-13T00:29:03.439Z,102546.22
2022-11-13T00:31:30.402Z,102551.38
2022-11-13T00:34:19.472Z,102552.75
2022-11-13T00:36:46.057Z,102542.13
2022-11-13T00:39:12.580Z,102543.47
2022-11-13T00:41:39.160Z,102543.47
2022-11-13T00:44:05.825Z,102546.16
2022-11-13T00:46:32.235Z,102539.34
2022-11-13T00:48:58.661Z,102540.44
2022-11-13T00:51:25.229Z,102537.69
2022-11-13T00:53:51.731Z,102524.31
2022-11-13T00:56:18.142Z,102530.56
2022-11-13T00:58:44.642Z,102532.19
2022-11-13T01:01:14.352Z,102527.81
2022-11-13T01:03:41.660Z,102521.81
2022-11-13T01:06:21.246Z,102517.97
2022-11-13T01:08:48.175Z,102518.78
2022-11-13T01:11:18.880Z,102515.75
2022-11-13T01:13:47.658Z,102501.56
2022-11-13T01:16:15.363Z,102502.09
2022-11-13T01:18:42.790Z,102496.66
2022-11-13T01:21:21.715Z,102499.88
2022-11-13T01:23:48.114Z,102499.84
2022-11-13T01:26:40.918Z,102494.38
2022-11-13T01:29:07.375Z,102489.97
2022-11-13T01:31:33.768Z,102480.72
2022-11-13T01:34:00.257Z,102480.44
2022-11-13T01:36:28.535Z,102486.41
2022-11-13T01:38:55.913Z,102480.41
2022-11-13T01:41:29.901Z,102488.75
2022-11-13T01:43:56.934Z,102479.53
2022-11-13T01:46:31.255Z,102490.94
2022-11-13T01:49:09.849Z,102474.31
2022-11-13T01:51:47.684Z,102472.91
2022-11-13T01:54:19.122Z,102477.22
2022-11-13T01:56:45.716Z,102472.00
2022-11-13T01:59:17.444Z,102468.09
2022-11-13T02:01:43.799Z,102463.41
2022-11-13T02:04:10.497Z,102465.59
2022-11-13T02:06:43.743Z,102469.31
2022-11-13T02:09:11.153Z,102462.75
2022-11-13T02:11:38.365Z,102456.47
2022-11-13T02:14:06.131Z,102453.69
2022-11-13T02:16:34.448Z,102458.31
2022-11-13T02:19:03.791Z,102457.97
2022-11-13T02:21:42.051Z,102460.72
2022-11-13T02:24:32.713Z,102452.47
2022-11-13T02:27:04.908Z,102437.94
2022-11-13T02:29:31.392Z,102443.47
2022-11-13T02:31:58.167Z,102449.97
2022-11-13T02:34:24.569Z,102453.28
2022-11-13T02:36:51.026Z,102440.69
2022-11-13T02:39:17.422Z,102440.00
2022-11-13T02:41:43.852Z,102440.22
2022-11-13T02:44:10.359Z,102442.63
2022-11-13T02:46:36.946Z,102443.13
2022-11-13T02:49:03.951Z,102442.31
2022-11-13T02:51:30.419Z,102440.63
2022-11-13T02:53:56.865Z,102429.31
2022-11-13T02:56:23.455Z,102437.13
2022-11-13T02:58:49.898Z,102430.03
2022-11-13T03:01:16.448Z,102420.19
2022-11-13T03:03:58.660Z,102417.72
2022-11-13T03:06:25.473Z,102424.47
2022-11-13T03:08:51.912Z,102414.06
2022-11-13T03:11:18.391Z,102410.22
2022-11-13T03:13:44.793Z,102421.38
2022-11-13T03:16:14.449Z,102415.09
2022-11-13T03:18:41.553Z,102405.22
2022-11-13T03:21:10.863Z,102410.44
2022-11-13T03:23:38.151Z,102410.44
2022-11-13T03:26:06.178Z,102411.78
2022-11-13T03:28:33.400Z,102397.84
2022-11-13T03:31:00.112Z,102403.59
2022-11-13T03:33:26.941Z,102406.63
2022-11-13T03:35:53.440Z,102399.53
2022-11-13T03:38:19.895Z,102396.19
2022-11-13T03:40:46.719Z,102409.56
2022-11-13T03:43:13.144Z,102393.69
2022-11-13T03:45:39.632Z,102390.97
2022-11-13T03:48:06.384Z,102394.22
2022-11-13T03:50:33.157Z,102394.47
2022-11-13T03:52:59.575Z,102390.59
2022-11-13T03:55:26.141Z,102392.81
2022-11-13T03:57:52.527Z,102389.78
2022-11-13T04:00:19.049Z,102377.72
2022-11-13T04:02:45.440Z,102384.28
2022-11-13T04:05:11.836Z,102385.09
2022-11-13T04:07:38.311Z,102381.56
2022-11-13T04:10:05.220Z,102387.47
2022-11-13T04:12:31.692Z,102368.19
2022-11-13T04:14:58.112Z,102368.75
2022-11-13T04:17:24.580Z,102370.38
2022-11-13T04:19:51.081Z,102380.38
2022-11-13T04:22:17.511Z,102374.91
2022-11-13T04:24:43.927Z,102379.50
2022-11-13T04:27:10.327Z,102376.47
2022-11-13T04:29:36.807Z,102376.69
2022-11-13T04:32:03.242Z,102377.19
2022-11-13T04:34:29.648Z,102372.25
2022-11-13T04:36:56.164Z,102370.81
2022-11-13T04:39:22.561Z,102369.00
2022-11-13T04:42:07.224Z,102373.78
2022-11-13T04:44:33.717Z,102368.53
2022-11-13T04:47:00.136Z,102360.03
2022-11-13T04:49:26.553Z,102365.22
2022-11-13T04:51:52.938Z,102362.47
2022-11-13T04:54:22.062Z,102360.25
2022-11-13T04:56:52.269Z,102370.44
2022-11-13T04:59:18.685Z,102367.63
2022-11-13T05:01:45.142Z,102363.56
2022-11-13T05:04:15.552Z,102366.50
2022-11-13T05:06:42.393Z,102367.31
2022-11-13T05:09:10.657Z,102364.59
2022-11-13T05:11:37.078Z,102364.28
2022-11-13T05:14:04.964Z,102365.59
2022-11-13T05:16:31.622Z,102364.00
2022-11-13T05:18:59.277Z,102359.03
2022-11-13T05:21:25.826Z,102364.66
2022-11-13T05:23:52.359Z,102364.59
2022-11-13T05:26:19.246Z,102367.41
2022-11-13T05:28:45.666Z,102363.84
2022-11-13T05:31:15.292Z,102353.75
2022-11-13T05:33:43.080Z,102357.44
2022-11-13T05:36:12.173Z,102358.38
2022-11-13T05:38:39.343Z,102360.50
2022-11-13T05:41:17.795Z,102353.97
2022-11-13T05:43:45.024Z,102356.69
2022-11-13T05:46:22.091Z,102356.38
2022-11-13T05:48:53.740Z,102349.78
2022-11-13T05:51:23.821Z,102350.94
2022-11-13T05:53:50.824Z,102346.81
2022-11-13T05:56:23.946Z,102342.44
2022-11-13T05:58:51.762Z,102335.06
2022-11-13T06:01:21.605Z,102339.13
2022-11-13T06:03:49.041Z,102343.25
2022-11-13T06:06:20.172Z,102344.06
2022-11-13T06:08:48.275Z,102339.91
2022-11-13T06:11:18.074Z,102342.03
2022-11-13T06:13:44.965Z,102343.16
2022-11-13T06:16:17.729Z,102338.00
2022-11-13T06:18:45.477Z,102344.78
2022-11-13T06:21:23.118Z,102341.75
2022-11-13T06:23:49.652Z,102338.44
2022-11-13T06:26:25.739Z,102334.22
2022-11-13T06:28:52.420Z,102336.25
2022-11-13T06:31:22.557Z,102337.31
2022-11-13T06:33:49.512Z,102329.31
2022-11-13T06:36:18.626Z,102336.38
2022-11-13T06:38:45.273Z,102330.81
2022-11-13T06:41:13.821Z,102327.47
2022-11-13T06:43:40.536Z,102317.97
2022-11-13T06:46:12.377Z,102321.91
2022-11-13T06:48:39.246Z,102310.75
2022-11-13T06:51:07.858Z,102312.41
2022-11-13T06:53:34.634Z,102320.31
2022-11-13T06:56:01.799Z,102320.00
2022-11-13T06:58:28.495Z,102323.94
2022-11-13T07:00:55.192Z,102318.16
2022-11-13T07:03:23.783Z,102317.66
2022-11-13T07:05:50.314Z,102316.03
2022-11-13T07:08:17.433Z,102305.19
2022-11-13T07:10:44.294Z,102303.06
2022-11-13T07:13:10.693Z,102300.25
2022-11-13T07:15:39.222Z,102303.97
2022-11-13T07:18:07.128Z,102312.50
2022-11-13T07:20:34.028Z,102304.91
2022-11-13T07:23:02.424Z,102310.97
2022-11-13T07:25:29.415Z,102312.78
2022-11-13T07:27:55.958Z,102309.75
2022-11-13T07:30:23.139Z,102304.69
2022-11-13T07:32:50.360Z,102299.22
2022-11-13T07:35:17.313Z,102310.69
2022-11-13T07:37:44.308Z,102296.06
2022-11-13T07:40:11.764Z,102304.19
2022-11-13T07:42:38.844Z,102304.91
2022-11-13T07:45:06.451Z,102298.50
2022-11-13T07:47:33.011Z,102299.84
2022-11-13T07:50:05.582Z,102297.78
2022-11-13T07:52:36.146Z,102300.44
2022-11-13T07:55:02.586Z,102294.66
2022-11-13T07:57:29.348Z,102299.75
2022-11-13T07:59:55.853Z,102298.00
2022-11-13T08:02:26.452Z,102296.59
2022-11-13T08:04:53.113Z,102292.84
2022-11-13T08:07:19.580Z,102302.94
2022-11-13T08:09:46.012Z,102299.34
2022-11-13T08:12:12.446Z,102303.06
2022-11-13T08:14:38.857Z,102295.78
2022-11-13T08:17:05.263Z,102303.88
2022-11-13T08:19:31.697Z,102295.47
2022-11-13T08:21:58.304Z,102302.66
2022-11-13T08:24:24.769Z,102291.59
2022-11-13T08:26:51.176Z,102294.75
2022-11-13T08:29:17.594Z,102301.25
2022-11-13T08:31:44.309Z,102302.03
2022-11-13T08:34:10.811Z,102291.91
2022-11-13T08:36:37.230Z,102298.16
2022-11-13T08:39:03.753Z,102290.50
2022-11-13T08:41:30.162Z,102297.91
2022-11-13T08:43:56.676Z,102287.34
2022-11-13T08:46:23.142Z,102292.00
2022-11-13T08:48:49.533Z,102293.53
2022-11-13T08:51:16.003Z,102284.50
2022-11-13T08:53:42.394Z,102288.53
2022-11-13T08:56:08.876Z,102285.53
2022-11-13T08:58:35.329Z,102290.06
2022-11-13T09:01:03.462Z,102285.88
2022-11-13T09:03:30.236Z,102280.91
2022-11-13T09:05:56.721Z,102282.22
2022-11-13T09:08:23.190Z,102282.00
2022-11-13T09:10:49.633Z,102277.06
2022-11-13T09:13:16.036Z,102286.59
2022-11-13T09:15:42.557Z,102286.19
2022-11-13T09:18:10.243Z,102287.78
2022-11-13T09:20:36.866Z,102283.00
2022-11-13T09:23:06.181Z,102279.25
2022-11-13T09:25:37.543Z,102282.81
2022-11-13T09:28:04.695Z,102277.66
2022-11-13T09:30:31.481Z,102284.13
2022-11-13T09:33:00.640Z,102284.63
2022-11-13T09:35:34.224Z,102283.31
2022-11-13T09:38:11.019Z,102283.50
2022-11-13T09:40:44.103Z,102282.69
2022-11-13T09:43:40.076Z,102281.88
2022-11-13T09:46:11.244Z,102283.25
2022-11-13T09:48:46.823Z,102280.81
2022-11-13T09:51:17.955Z,102276.94
2022-11-13T09:53:44.942Z,102279.00
2022-11-13T09:56:29.815Z,102269.38
2022-11-13T09:59:11.873Z,102273.31
2022-11-13T10:01:54.993Z,102266.53
2022-11-13T10:04:33.632Z,102269.97
2022-11-13T10:07:15.885Z,102266.09
2022-11-13T10:10:01.938Z,102267.00
2022-11-13T10:12:31.375Z,102259.47
2022-11-13T10:15:03.353Z,102251.94
2022-11-13T10:17:48.606Z,102250.31
2022-11-13T10:20:22.895Z,102247.00
2022-11-13T10:22:56.961Z,102246.81
2022-11-13T10:25:28.345Z,102243.09
2022-11-13T10:28:21.550Z,102238.91
2022-11-13T10:30:45.958Z,102234.56
2022-11-13T10:33:18.135Z,102238.91
2022-11-13T10:36:18.494Z,102224.91
2022-11-13T10:39:00.136Z,102219.63
2022-11-13T10:41:26.525Z,102219.00
2022-11-13T10:44:48.955Z,102215.28
2022-11-13T10:47:42.523Z,102217.19
2022-11-13T10:50:29.443Z,102221.06
2022-11-13T10:52:57.726Z,102213.41
2022-11-13T10:55:40.659Z,102212.78
2022-11-13T10:58:16.982Z,102212.38
2022-11-13T11:00:47.356Z,102214.53
2022-11-13T11:03:22.260Z,102202.31
2022-11-13T11:05:56.883Z,102203.47
2022-11-13T11:08:32.030Z,102197.94
2022-11-13T11:11:25.711Z,102199.25
2022-11-13T11:13:52.490Z,102196.09
2022-11-13T11:16:24.667Z,102199.13
2022-11-13T11:19:00.110Z,102192.34
2022-11-13T11:21:32.344Z,102188.06
2022-11-13T11:24:04.554Z,102185.63
2022-11-13T11:26:39.594Z,102186.53
2022-11-13T11:29:34.876Z,102185.63
2022-11-13T11:32:11.123Z,102182.38
2022-11-13T11:34:45.964Z,102179.19
2022-11-13T11:37:12.433Z,102173.75
2022-11-13T11:40:03.957Z,102168.25
2022-11-13T11:42:59.732Z,102166.28
2022-11-13T11:45:38.609Z,102150.53
2022-11-13T11:48:16.543Z,102146.41
2022-11-13T11:50:46.331Z,102143.16
2022-11-13T11:53:19.530Z,102139.13
2022-11-13T11:56:10.348Z,102136.75
2022-11-13T11:59:12.470Z,102137.84
2022-11-13T12:01:58.291Z,102132.38
2022-11-13T12:04:35.041Z,102136.06
2022-11-13T12:07:30.350Z,102138.81
2022-11-13T12:10:09.170Z,102135.09
2022-11-13T12:13:17.023Z,102136.38
2022-11-13T12:15:56.094Z,102126.38
2022-11-13T12:18:25.593Z,102131.34
2022-11-13T12:21:07.690Z,102128.63
2022-11-13T12:23:42.829Z,102123.31
2022-11-13T12:26:35.326Z,102126.09
2022-11-13T12:29:16.649Z,102127.84
2022-11-13T12:32:35.376Z,102125.78
2022-11-13T12:35:10.145Z,102127.22
2022-11-13T12:38:05.669Z,102122.53
2022-11-13T12:40:41.195Z,102124.41
2022-11-13T12:43:48.295Z,102111.41
2022-11-13T12:46:15.804Z,102109.94
2022-11-13T12:48:45.134Z,102108.53
2022-11-13T12:51:15.153Z,102107.69
2022-11-13T12:53:44.988Z,102110.38
2022-11-13T12:56:23.976Z,102103.25
2022-11-13T12:59:23.851Z,102094.53
2022-11-13T13:02:07.015Z,102091.53
2022-11-13T13:04:58.201Z,102093.44
2022-11-13T13:07:39.973Z,102088.47
2022-11-13T13:10:31.071Z,102090.56
2022-11-13T13:13:41.926Z,102089.13
2022-11-13T13:16:09.459Z,102095.72
2022-11-13T13:18:40.446Z,102092.81
2022-11-13T13:21:12.642Z,102095.53
2022-11-13T13:23:42.117Z,102092.50
2022-11-13T13:26:19.023Z,102094.13
2022-11-13T13:28:51.008Z,102091.13
2022-11-13T13:31:30.629Z,102091.25
2022-11-13T13:34:37.785Z,102094.50
2022-11-13T13:37:19.639Z,102088.19
2022-11-13T13:39:49.114Z,102082.91
2022-11-13T13:42:53.356Z,102080.28
2022-11-13T13:45:57.077Z,102077.69
2022-11-13T13:48:27.431Z,102075.63
2022-11-13T13:50:55.318Z,102075.94
2022-11-13T13:53:30.021Z,102072.06
2022-11-13T13:55:58.284Z,102072.84
2022-11-13T13:58:36.287Z,102069.16
2022-11-13T14:01:18.405Z,102070.69
2022-11-13T14:03:45.754Z,102084.13
2022-11-13T14:06:20.566Z,102077.69
2022-11-13T14:08:48.378Z,102075.41
2022-11-13T14:11:27.271Z,102068.69
2022-11-13T14:13:53.779Z,102064.31
2022-11-13T14:16:20.322Z,102067.81
2022-11-13T14:18:47.059Z,102071.75
2022-11-13T14:21:24.872Z,102068.84
2022-11-13T14:23:53.366Z,102059.16
2022-11-13T14:26:20.746Z,102057.88
2022-11-13T14:28:59.901Z,102061.88
2022-11-13T14:31:33.226Z,102054.66
2022-11-13T14:34:08.784Z,102054.16
2022-11-13T14:36:37.112Z,102055.75
2022-11-13T14:39:04.297Z,102051.06
2022-11-13T14:41:36.235Z,102054.44
2022-11-13T14:44:02.950Z,102057.00
2022-11-13T14:46:29.406Z,102051.97
2022-11-13T14:48:57.145Z,102061.00
2022-11-13T14:51:32.583Z,102059.03
2022-11-13T14:54:06.106Z,102062.59
2022-11-13T14:56:41.118Z,102072.25
2022-11-13T14:59:11.660Z,102060.69
2022-11-13T15:01:41.444Z,102057.91
2022-11-13T15:04:08.008Z,102062.56
2022-11-13T15:06:40.306Z,102059.00
2022-11-13T15:09:12.952Z,102057.91
2022-11-13T15:11:40.380Z,102056.72
2022-11-13T15:14:15.506Z,102058.16
2022-11-13T15:16:44.640Z,102059.09
2022-11-13T15:19:16.906Z,102052.81
2022-11-13T15:21:51.025Z,102052.50
2022-11-13T15:24:30.818Z,102046.16
2022-11-13T15:26:57.382Z,102050.06
2022-11-13T15:29:24.032Z,102042.13
2022-11-13T15:31:50.562Z,102051.53
2022-11-13T15:34:17.447Z,102054.56
2022-11-13T15:36:45.959Z,102052.16
2022-11-13T15:39:23.122Z,102046.56
2022-11-13T15:41:50.477Z,102047.91
2022-11-13T15:44:17.316Z,102052.94
2022-11-13T15:46:43.791Z,102053.56
2022-11-13T15:49:10.245Z,102050.09
2022-11-13T15:51:46.275Z,102040.59
2022-11-13T15:54:24.070Z,102046.16
2022-11-13T15:56:50.737Z,102044.13
2022-11-13T15:59:17.472Z,102052.75
2022-11-13T16:01:44.077Z,102038.41
2022-11-13T16:04:12.995Z,102056.19
2022-11-13T16:06:41.147Z,102054.38
2022-11-13T16:09:13.000Z,102051.81
2022-11-13T16:11:39.846Z,102041.50
2022-11-13T16:14:06.299Z,102050.94
2022-11-13T16:16:36.759Z,102043.56
2022-11-13T16:19:04.171Z,102046.94
2022-11-13T16:21:30.913Z,102054.31
2022-11-13T16:23:57.720Z,102047.78
2022-11-13T16:26:25.898Z,102046.16
2022-11-13T16:29:13.910Z,102048.22
2022-11-13T16:31:41.523Z,102050.75
2022-11-13T16:34:08.071Z,102043.31
2022-11-13T16:36:34.740Z,102052.22
2022-11-13T16:39:01.236Z,102048.38
2022-11-13T16:41:27.763Z,102044.78
2022-11-13T16:43:54.217Z,102050.00
2022-11-13T16:46:31.840Z,102049.59
2022-11-13T16:48:58.637Z,102042.75
2022-11-13T16:51:25.036Z,102042.53
2022-11-13T16:53:51.649Z,102034.47
2022-11-13T16:56:28.015Z,102034.25
2022-11-13T16:58:58.648Z,102026.16
2022-11-13T17:01:26.211Z,102015.34
2022-11-13T17:03:53.369Z,102020.44
2022-11-13T17:06:22.065Z,102015.97
2022-11-13T17:08:50.885Z,102006.34
2022-11-13T17:11:18.273Z,102007.25
2022-11-13T17:13:50.372Z,101998.88
2022-11-13T17:16:17.430Z,102000.38
2022-11-13T17:18:44.398Z,101996.16
2022-11-13T17:21:11.350Z,101993.03
2022-11-13T17:23:38.106Z,102002.72
2022-11-13T17:26:05.201Z,101997.25
2022-11-13T17:28:31.680Z,102002.19
2022-11-13T17:31:03.666Z,101999.31
2022-11-13T17:33:31.494Z,102000.72
2022-11-13T17:35:59.035Z,102003.97
2022-11-13T17:38:26.401Z,101995.88
2022-11-13T17:40:54.049Z,101997.19
2022-11-13T17:43:21.967Z,101994.63
2022-11-13T17:45:51.703Z,101996.25
2022-11-13T17:48:19.339Z,101995.03
2022-11-13T17:50:55.611Z,101988.09
2022-11-13T17:53:22.400Z,101997.91
2022-11-13T17:56:01.288Z,101991.72
2022-11-13T17:58:29.563Z,101997.09
2022-11-13T18:01:05.504Z,101984.06
2022-11-13T18:03:32.236Z,101989.25
2022-11-13T18:05:58.901Z,101991.66
2022-11-13T18:08:25.379Z,101992.56
2022-11-13T18:10:51.857Z,101991.34
2022-11-13T18:13:18.318Z,101993.19
2022-11-13T18:15:44.908Z,102002.81
2022-11-13T18:18:11.418Z,101995.09
2022-11-13T18:20:40.171Z,101994.63
2022-11-13T18:23:06.712Z,101992.91
2022-11-13T18:25:39.405Z,101993.91
2022-11-13T18:28:06.276Z,101994.63
2022-11-13T18:30:32.783Z,102000.78
2022-11-13T18:32:59.262Z,102001.19
2022-11-13T18:35:25.793Z,101992.09
2022-11-13T18:37:53.080Z,102005.75
2022-11-13T18:40:19.654Z,101999.47
2022-11-13T18:42:46.164Z,101999.22
2022-11-13T18:45:16.162Z,101992.25
2022-11-13T18:47:42.749Z,101992.06
2022-11-13T18:50:09.442Z,101986.50
2022-11-13T18:52:35.993Z,101989.84
2022-11-13T18:55:02.525Z,101990.25
2022-11-13T18:57:29.042Z,101990.84
2022-11-13T18:59:55.480Z,101995.34
2022-11-13T19:02:22.080Z,101989.63
2022-11-13T19:04:48.536Z,101987.69
2022-11-13T19:07:15.133Z,101987.44
2022-11-13T19:09:45.842Z,101990.19
2022-11-13T19:12:12.350Z,101979.25
2022-11-13T19:14:38.879Z,101976.69
2022-11-13T19:17:05.372Z,101974.66
2022-11-13T19:19:31.789Z,101959.91
2022-11-13T19:21:58.298Z,101958.38
2022-11-13T19:24:24.786Z,101952.72
2022-11-13T19:26:51.210Z,101950.59
2022-11-13T19:29:18.163Z,101946.97
2022-11-13T19:31:46.501Z,101951.41
2022-11-13T19:34:13.437Z,101949.59
2022-11-13T19:36:41.335Z,101949.59
2022-11-13T19:39:09.765Z,101956.16
2022-11-13T19:41:36.413Z,101951.69
2022-11-13T19:44:02.872Z,101947.44
2022-11-13T19:46:32.085Z,101949.06
2022-11-13T19:48:58.650Z,101950.78
2022-11-13T19:51:26.316Z,101956.34
2022-11-13T19:53:54.640Z,101960.72
2022-11-13T19:56:22.694Z,101959.31
2022-11-13T19:58:50.719Z,101964.16
2022-11-13T20:01:19.647Z,101950.88
2022-11-13T20:03:46.202Z,101950.00
2022-11-13T20:06:14.896Z,101943.03
2022-11-13T20:08:41.990Z,101947.25
2022-11-13T20:11:10.677Z,101949.06
2022-11-13T20:13:38.560Z,101949.78
2022-11-13T20:16:07.003Z,101952.00
2022-11-13T20:18:33.511Z,101946.53
2022-11-13T20:21:00.695Z,101938.16
2022-11-13T20:23:27.662Z,101944.44
2022-11-13T20:25:59.358Z,101937.16
2022-11-13T20:28:27.242Z,101939.44
2022-11-13T20:31:13.044Z,101932.28
2022-11-13T20:33:39.535Z,101937.53
2022-11-13T20:36:06.337Z,101929.56
2022-11-13T20:38:32.956Z,101939.28
2022-11-13T20:41:04.598Z,101937.16
2022-11-13T20:43:31.438Z,101941.88
2022-11-13T20:46:02.790Z,101938.84
2022-11-13T20:48:29.494Z,101939.66
2022-11-13T20:50:56.111Z,101934.94
2022-11-13T20:53:22.928Z,101929.94
2022-11-13T20:55:49.363Z,101935.00
2022-11-13T20:58:15.866Z,101937.03
2022-11-13T21:00:42.253Z,101937.03
2022-11-13T21:03:08.867Z,101946.56
2022-11-13T21:05:35.280Z,101939.25
2022-11-13T21:08:01.687Z,101946.25
2022-11-13T21:10:28.156Z,101941.41
2022-11-13T21:12:55.100Z,101930.34
2022-11-13T21:15:21.612Z,101928.16
2022-11-13T21:17:48.082Z,101929.56
2022-11-13T21:20:14.909Z,101932.81
2022-11-13T21:22:41.421Z,101927.44
2022-11-13T21:25:08.156Z,101925.41
2022-11-13T21:27:34.590Z,101924.31
2022-11-13T21:30:01.003Z,101924.41
2022-11-13T21:32:27.477Z,101927.22
2022-11-13T21:34:58.942Z,101925.00
2022-11-13T21:37:26.526Z,101908.72
2022-11-13T21:39:53.004Z,101920.34
2022-11-13T21:42:19.410Z,101916.50
2022-11-13T21:44:45.923Z,101911.56
2022-11-13T21:47:12.396Z,101912.75
2022-11-13T21:49:38.835Z,101908.94
2022-11-13T21:52:05.258Z,101907.34
2022-11-13T21:54:31.734Z,101907.50
2022-11-13T21:56:58.123Z,101908.94
2022-11-13T21:59:24.537Z,101907.34
2022-11-13T22:01:51.934Z,101914.81
2022-11-13T22:04:18.411Z,101914.97
2022-11-13T22:06:49.061Z,101909.09
2022-11-13T22:09:24.153Z,101907.91
2022-11-13T22:11:50.787Z,101908.94
2022-11-13T22:14:17.418Z,101910.38
2022-11-13T22:16:46.111Z,101905.59
2022-11-13T22:19:15.248Z,101903.56
2022-11-13T22:21:42.814Z,101906.53
2022-11-13T22:24:09.974Z,101903.06
2022-11-13T22:26:38.781Z,101899.16
2022-11-13T22:29:05.383Z,101898.03
2022-11-13T22:31:33.093Z,101900.03
2022-11-13T22:33:59.920Z,101889.03
2022-11-13T22:36:34.195Z,101889.94
2022-11-13T22:39:01.055Z,101892.75
2022-11-13T22:41:31.028Z,101895.59
2022-11-13T22:44:00.471Z,101887.91
2022-11-13T22:46:29.285Z,101877.81
2022-11-13T22:48:57.195Z,101879.84
2022-11-13T22:51:29.945Z,101873.03
2022-11-13T22:54:01.096Z,101881.84
2022-11-13T22:56:30.026Z,101874.78
2022-11-13T22:58:58.220Z,101865.66
2022-11-13T23:01:33.228Z,101865.38
2022-11-13T23:04:03.545Z,101860.81
2022-11-13T23:06:32.220Z,101853.06
2022-11-13T23:08:59.268Z,101850.31
2022-11-13T23:11:29.428Z,101842.66
2022-11-13T23:13:57.837Z,101839.09
2022-11-13T23:16:26.164Z,101845.38
2022-11-13T23:18:54.695Z,101839.31
2022-11-13T23:21:21.804Z,101840.84
2022-11-13T23:23:48.522Z,101839.72
2022-11-13T23:26:16.204Z,101833.38
2022-11-13T23:28:42.810Z,101837.41
2022-11-13T23:31:09.662Z,101839.00
2022-11-13T23:33:38.000Z,101834.97
2022-11-13T23:36:06.679Z,101820.31
2022-11-13T23:38:33.317Z,101832.44
2022-11-13T23:41:00.927Z,101823.16
2022-11-13T23:43:47.682Z,101816.91
2022-11-13T23:46:14.930Z,101820.72
2022-11-13T23:48:41.329Z,101814.56
2022-11-13T23:51:07.787Z,101810.94
2022-11-13T23:53:34.263Z,101814.16
2022-11-13T23:56:01.053Z,101815.88
2022-11-13T23:58:27.802Z,101815.97
